VLG6DE LIMC-LEBB
Flight info
| Callsign | VLG6DE |
|---|---|
| Flight time | 1h 32m |
| Altitude | 35000 |
| Route | TOP DCT RONOP DCT GIGUS DCT BALSI DCT GIPNO DCT RUSIT DCT ESIDA DCT LERGA DCT MINSO DCT NARAK DCT AGN DCT DIGPO DCT ERAKI DCT PPN M601 CEGAM |
| Aircraft | A320/M-SDFGHIJ1LORVWY/LB1 |
Departure
| Time | 2026-05-05 18:04 |
|---|---|
| Airport | Milan Malpensa International Airport (LIMC) |
Arrival
| Time | 2026-05-05 19:37 |
|---|---|
| Airport | Bilbao Airport (LEBB) |
| Time | Latitude | Longitude | Altitude | Speed | Heading |
|---|---|---|---|---|---|
| 2026-05-05 17:28 | 45.62771 | 8.71671 | 782 ft | 0 kts | 259° |
| 2026-05-05 17:50 | 45.62771 | 8.71677 | 781 ft | 2 kts | 258° |
| 2026-05-05 17:50 | 45.62775 | 8.71703 | 781 ft | 3 kts | 255° |
| 2026-05-05 17:50 | 45.62781 | 8.71731 | 781 ft | 3 kts | 248° |
| 2026-05-05 17:51 | 45.62790 | 8.71756 | 781 ft | 3 kts | 234° |
| 2026-05-05 17:51 | 45.62803 | 8.71776 | 781 ft | 3 kts | 198° |
| 2026-05-05 17:51 | 45.62814 | 8.71778 | 781 ft | 1 kts | 171° |
| 2026-05-05 17:51 | 45.62817 | 8.71777 | 781 ft | 0 kts | 171° |
| 2026-05-05 17:53 | 45.62817 | 8.71778 | 781 ft | 0 kts | 171° |
| 2026-05-05 17:54 | 45.62815 | 8.71778 | 781 ft | 2 kts | 171° |
| 2026-05-05 17:54 | 45.62787 | 8.71784 | 781 ft | 8 kts | 171° |
| 2026-05-05 17:55 | 45.62720 | 8.71801 | 781 ft | 12 kts | 170° |
| 2026-05-05 17:55 | 45.62625 | 8.71827 | 781 ft | 16 kts | 168° |
| 2026-05-05 17:55 | 45.62503 | 8.71863 | 781 ft | 20 kts | 169° |
| 2026-05-05 17:55 | 45.62383 | 8.71896 | 781 ft | 10 kts | 169° |
| 2026-05-05 17:56 | 45.62346 | 8.71970 | 781 ft | 12 kts | 80° |
| 2026-05-05 17:56 | 45.62358 | 8.72085 | 781 ft | 9 kts | 91° |
| 2026-05-05 17:56 | 45.62311 | 8.72129 | 781 ft | 11 kts | 167° |
| 2026-05-05 17:56 | 45.62225 | 8.72151 | 781 ft | 15 kts | 173° |
| 2026-05-05 17:57 | 45.62109 | 8.72170 | 781 ft | 19 kts | 170° |
| 2026-05-05 17:57 | 45.61968 | 8.72210 | 781 ft | 23 kts | 169° |
| 2026-05-05 17:57 | 45.61803 | 8.72255 | 781 ft | 24 kts | 169° |
| 2026-05-05 17:57 | 45.61642 | 8.72299 | 781 ft | 23 kts | 169° |
| 2026-05-05 17:58 | 45.61499 | 8.72339 | 781 ft | 18 kts | 169° |
| 2026-05-05 17:58 | 45.61412 | 8.72376 | 781 ft | 7 kts | 140° |
| 2026-05-05 17:58 | 45.61367 | 8.72440 | 781 ft | 11 kts | 134° |
| 2026-05-05 17:58 | 45.61298 | 8.72506 | 781 ft | 14 kts | 165° |
| 2026-05-05 17:59 | 45.61190 | 8.72537 | 781 ft | 17 kts | 168° |
| 2026-05-05 17:59 | 45.61095 | 8.72576 | 781 ft | 13 kts | 134° |
| 2026-05-05 17:59 | 45.61084 | 8.72703 | 781 ft | 15 kts | 80° |
| 2026-05-05 17:59 | 45.61106 | 8.72869 | 781 ft | 17 kts | 79° |
| 2026-05-05 18:00 | 45.61127 | 8.73009 | 781 ft | 14 kts | 69° |
| 2026-05-05 18:00 | 45.61203 | 8.73110 | 781 ft | 17 kts | 34° |
| 2026-05-05 18:00 | 45.61292 | 8.73195 | 781 ft | 16 kts | 33° |
| 2026-05-05 18:00 | 45.61389 | 8.73263 | 781 ft | 16 kts | 359° |
| 2026-05-05 18:01 | 45.61510 | 8.73232 | 781 ft | 18 kts | 349° |
| 2026-05-05 18:01 | 45.61593 | 8.73212 | 781 ft | 9 kts | 8° |
| 2026-05-05 18:01 | 45.61623 | 8.73297 | 781 ft | 12 kts | 77° |
| 2026-05-05 18:01 | 45.61633 | 8.73421 | 781 ft | 12 kts | 107° |
| 2026-05-05 18:02 | 45.61593 | 8.73528 | 781 ft | 13 kts | 114° |
| 2026-05-05 18:02 | 45.61587 | 8.73593 | 781 ft | 0 kts | 86° |
| 2026-05-05 18:03 | 45.61588 | 8.73599 | 781 ft | 2 kts | 86° |
| 2026-05-05 18:03 | 45.61593 | 8.73659 | 781 ft | 8 kts | 76° |
| 2026-05-05 18:03 | 45.61641 | 8.73723 | 781 ft | 11 kts | 3° |
| 2026-05-05 18:03 | 45.61727 | 8.73704 | 781 ft | 14 kts | 349° |
| 2026-05-05 18:04 | 45.61898 | 8.73656 | 781 ft | 51 kts | 347° |
| 2026-05-05 18:04 | 45.62475 | 8.73494 | 782 ft | 115 kts | 349° |
| 2026-05-05 18:04 | 45.63399 | 8.73245 | 997 ft | 137 kts | 348° |
| 2026-05-05 18:04 | 45.64316 | 8.72979 | 1480 ft | 140 kts | 347° |
| 2026-05-05 18:05 | 45.65305 | 8.72755 | 1890 ft | 151 kts | 354° |
| 2026-05-05 18:05 | 45.66418 | 8.72715 | 2194 ft | 168 kts | 359° |
| 2026-05-05 18:05 | 45.67635 | 8.72716 | 2573 ft | 182 kts | 359° |
| 2026-05-05 18:05 | 45.68952 | 8.72687 | 2978 ft | 196 kts | 358° |
| 2026-05-05 18:06 | 45.70373 | 8.72629 | 3356 ft | 214 kts | 358° |
| 2026-05-05 18:06 | 45.71383 | 8.72586 | 3692 ft | 223 kts | 355° |
| 2026-05-05 18:06 | 45.73361 | 8.71571 | 4478 ft | 234 kts | 317° |
| 2026-05-05 18:06 | 45.74233 | 8.69626 | 5189 ft | 236 kts | 284° |
| 2026-05-05 18:07 | 45.74260 | 8.67323 | 5884 ft | 239 kts | 254° |
| 2026-05-05 18:07 | 45.73561 | 8.65177 | 6637 ft | 240 kts | 238° |
| 2026-05-05 18:07 | 45.72653 | 8.63147 | 7389 ft | 243 kts | 237° |
| 2026-05-05 18:07 | 45.71765 | 8.61068 | 8145 ft | 246 kts | 239° |
| 2026-05-05 18:08 | 45.70897 | 8.58928 | 8853 ft | 252 kts | 239° |
| 2026-05-05 18:08 | 45.69970 | 8.56714 | 9363 ft | 267 kts | 237° |
| 2026-05-05 18:08 | 45.68948 | 8.54411 | 9847 ft | 281 kts | 236° |
| 2026-05-05 18:08 | 45.67735 | 8.52164 | 10373 ft | 292 kts | 224° |
| 2026-05-05 18:09 | 45.66089 | 8.50352 | 10777 ft | 306 kts | 213° |
| 2026-05-05 18:09 | 45.64226 | 8.48727 | 11156 ft | 321 kts | 210° |
| 2026-05-05 18:09 | 45.62254 | 8.47094 | 11509 ft | 334 kts | 210° |
| 2026-05-05 18:09 | 45.60229 | 8.45390 | 12074 ft | 340 kts | 211° |
| 2026-05-05 18:10 | 45.58203 | 8.43623 | 12730 ft | 342 kts | 212° |
| 2026-05-05 18:10 | 45.56183 | 8.41816 | 13397 ft | 343 kts | 212° |
| 2026-05-05 18:10 | 45.54161 | 8.40003 | 14057 ft | 344 kts | 212° |
| 2026-05-05 18:10 | 45.52125 | 8.38190 | 14700 ft | 346 kts | 212° |
| 2026-05-05 18:11 | 45.50074 | 8.36377 | 15320 ft | 347 kts | 212° |
| 2026-05-05 18:11 | 45.48014 | 8.34563 | 15923 ft | 348 kts | 212° |
| 2026-05-05 18:11 | 45.45945 | 8.32745 | 16512 ft | 350 kts | 212° |
| 2026-05-05 18:11 | 45.43869 | 8.30922 | 17090 ft | 351 kts | 212° |
| 2026-05-05 18:12 | 45.41787 | 8.29087 | 17656 ft | 353 kts | 213° |
| 2026-05-05 18:12 | 45.39723 | 8.27269 | 18203 ft | 354 kts | 213° |
| 2026-05-05 18:12 | 45.37619 | 8.25418 | 18738 ft | 356 kts | 213° |
| 2026-05-05 18:12 | 45.35509 | 8.23566 | 19252 ft | 358 kts | 213° |
| 2026-05-05 18:13 | 45.33387 | 8.21704 | 19753 ft | 358 kts | 213° |
| 2026-05-05 18:13 | 45.31419 | 8.19525 | 20198 ft | 360 kts | 225° |
| 2026-05-05 18:13 | 45.29907 | 8.16691 | 20660 ft | 363 kts | 240° |
| 2026-05-05 18:13 | 45.29037 | 8.13308 | 21118 ft | 369 kts | 256° |
| 2026-05-05 18:14 | 45.28890 | 8.09650 | 21566 ft | 376 kts | 271° |
| 2026-05-05 18:14 | 45.29292 | 8.05943 | 22023 ft | 381 kts | 276° |
| 2026-05-05 18:14 | 45.29801 | 8.02288 | 22444 ft | 383 kts | 277° |
| 2026-05-05 18:14 | 45.30318 | 7.98565 | 22855 ft | 385 kts | 276° |
| 2026-05-05 18:15 | 45.30792 | 7.94804 | 23235 ft | 387 kts | 275° |
| 2026-05-05 18:15 | 45.31218 | 7.91021 | 23625 ft | 389 kts | 274° |
| 2026-05-05 18:15 | 45.31628 | 7.87206 | 24009 ft | 391 kts | 274° |
| 2026-05-05 18:15 | 45.32047 | 7.83373 | 24386 ft | 393 kts | 274° |
| 2026-05-05 18:16 | 45.32335 | 7.80823 | 24644 ft | 394 kts | 274° |
| 2026-05-05 18:16 | 45.32780 | 7.76969 | 25027 ft | 395 kts | 274° |
| 2026-05-05 18:16 | 45.33226 | 7.73109 | 25402 ft | 396 kts | 274° |
| 2026-05-05 18:16 | 45.33670 | 7.69237 | 25774 ft | 397 kts | 274° |
| 2026-05-05 18:17 | 45.34108 | 7.65360 | 26136 ft | 398 kts | 274° |
| 2026-05-05 18:17 | 45.34544 | 7.61463 | 26500 ft | 399 kts | 274° |
| 2026-05-05 18:17 | 45.34980 | 7.57559 | 26850 ft | 400 kts | 274° |
| 2026-05-05 18:17 | 45.35417 | 7.53652 | 27196 ft | 401 kts | 274° |
| 2026-05-05 18:18 | 45.35856 | 7.49728 | 27529 ft | 402 kts | 274° |
| 2026-05-05 18:18 | 45.36293 | 7.45795 | 27850 ft | 403 kts | 273° |
| 2026-05-05 18:18 | 45.36729 | 7.41851 | 28169 ft | 404 kts | 273° |
| 2026-05-05 18:18 | 45.37160 | 7.37943 | 28474 ft | 405 kts | 273° |
| 2026-05-05 18:19 | 45.37596 | 7.33982 | 28790 ft | 406 kts | 273° |
| 2026-05-05 18:19 | 45.38032 | 7.30001 | 29100 ft | 407 kts | 273° |
| 2026-05-05 18:19 | 45.38469 | 7.26011 | 29400 ft | 408 kts | 273° |
| 2026-05-05 18:19 | 45.38904 | 7.22011 | 29696 ft | 409 kts | 273° |
| 2026-05-05 18:20 | 45.39338 | 7.18009 | 29986 ft | 410 kts | 272° |
| 2026-05-05 18:20 | 45.39772 | 7.14006 | 30458 ft | 406 kts | 272° |
| 2026-05-05 18:20 | 45.40202 | 7.10056 | 30855 ft | 404 kts | 272° |
| 2026-05-05 18:20 | 45.40629 | 7.06076 | 31116 ft | 405 kts | 272° |
| 2026-05-05 18:21 | 45.41051 | 7.02117 | 31457 ft | 404 kts | 272° |
| 2026-05-05 18:21 | 45.41472 | 6.98169 | 31773 ft | 403 kts | 272° |
| 2026-05-05 18:21 | 45.41886 | 6.94270 | 32039 ft | 404 kts | 272° |
| 2026-05-05 18:21 | 45.42306 | 6.90312 | 32325 ft | 404 kts | 272° |
| 2026-05-05 18:22 | 45.42725 | 6.86359 | 32625 ft | 404 kts | 272° |
| 2026-05-05 18:22 | 45.43141 | 6.82410 | 32920 ft | 403 kts | 272° |
| 2026-05-05 18:22 | 45.43555 | 6.78462 | 33195 ft | 403 kts | 272° |
| 2026-05-05 18:22 | 45.43968 | 6.74515 | 33470 ft | 403 kts | 272° |
| 2026-05-05 18:23 | 45.44380 | 6.70555 | 33713 ft | 403 kts | 272° |
| 2026-05-05 18:23 | 45.44789 | 6.66609 | 33989 ft | 403 kts | 272° |
| 2026-05-05 18:23 | 45.45198 | 6.62653 | 34218 ft | 404 kts | 272° |
| 2026-05-05 18:23 | 45.45607 | 6.58690 | 34415 ft | 405 kts | 272° |
| 2026-05-05 18:24 | 45.46016 | 6.54716 | 34616 ft | 406 kts | 272° |
| 2026-05-05 18:24 | 45.46425 | 6.50721 | 34819 ft | 407 kts | 272° |
| 2026-05-05 18:24 | 45.46827 | 6.46772 | 34924 ft | 409 kts | 272° |
| 2026-05-05 18:25 | 45.47642 | 6.38737 | 34914 ft | 409 kts | 272° |
| 2026-05-05 18:25 | 45.48458 | 6.30662 | 34907 ft | 411 kts | 272° |
| 2026-05-05 18:26 | 45.49266 | 6.22586 | 34901 ft | 412 kts | 272° |
| 2026-05-05 18:26 | 45.50065 | 6.14547 | 34897 ft | 412 kts | 272° |
| 2026-05-05 18:27 | 45.50862 | 6.06459 | 34866 ft | 413 kts | 272° |
| 2026-05-05 18:27 | 45.51655 | 5.98345 | 34851 ft | 413 kts | 272° |
| 2026-05-05 18:28 | 45.52836 | 5.86169 | 34835 ft | 414 kts | 272° |
| 2026-05-05 18:28 | 45.53617 | 5.78021 | 34833 ft | 414 kts | 272° |
| 2026-05-05 18:29 | 45.53993 | 5.69872 | 34832 ft | 407 kts | 259° |
| 2026-05-05 18:29 | 45.52968 | 5.61980 | 34866 ft | 404 kts | 254° |
| 2026-05-05 18:30 | 45.51785 | 5.54193 | 34918 ft | 404 kts | 255° |
| 2026-05-05 18:30 | 45.50716 | 5.46305 | 34917 ft | 405 kts | 255° |
| 2026-05-05 18:31 | 45.49652 | 5.38395 | 34919 ft | 404 kts | 255° |
| 2026-05-05 18:31 | 45.48550 | 5.30553 | 34905 ft | 403 kts | 255° |
| 2026-05-05 18:32 | 45.47459 | 5.22770 | 34863 ft | 403 kts | 255° |
| 2026-05-05 18:32 | 45.46362 | 5.14938 | 34824 ft | 402 kts | 255° |
| 2026-05-05 18:33 | 45.45257 | 5.07118 | 34825 ft | 403 kts | 255° |
| 2026-05-05 18:33 | 45.44143 | 4.99281 | 34829 ft | 403 kts | 255° |
| 2026-05-05 18:34 | 45.43032 | 4.91482 | 34831 ft | 404 kts | 255° |
| 2026-05-05 18:34 | 45.41905 | 4.83610 | 34829 ft | 406 kts | 255° |
| 2026-05-05 18:35 | 45.40766 | 4.75722 | 34831 ft | 407 kts | 255° |
| 2026-05-05 18:35 | 45.39621 | 4.67815 | 34824 ft | 409 kts | 255° |
| 2026-05-05 18:36 | 45.38465 | 4.59884 | 34829 ft | 410 kts | 255° |
| 2026-05-05 18:36 | 45.37302 | 4.51941 | 34877 ft | 410 kts | 255° |
| 2026-05-05 18:37 | 45.36141 | 4.44051 | 34902 ft | 410 kts | 255° |
| 2026-05-05 18:37 | 45.34968 | 4.36108 | 34901 ft | 410 kts | 255° |
| 2026-05-05 18:38 | 45.33789 | 4.28176 | 34877 ft | 410 kts | 255° |
| 2026-05-05 18:38 | 45.32603 | 4.20247 | 34835 ft | 410 kts | 255° |
| 2026-05-05 18:39 | 45.31411 | 4.12306 | 34821 ft | 411 kts | 255° |
| 2026-05-05 18:39 | 45.30213 | 4.04361 | 34829 ft | 411 kts | 254° |
| 2026-05-05 18:40 | 45.29010 | 3.96434 | 34842 ft | 413 kts | 255° |
| 2026-05-05 18:40 | 45.27774 | 3.88357 | 34846 ft | 422 kts | 255° |
| 2026-05-05 18:41 | 45.26534 | 3.80242 | 34864 ft | 417 kts | 255° |
| 2026-05-05 18:41 | 45.24613 | 3.72608 | 34887 ft | 409 kts | 237° |
| 2026-05-05 18:42 | 45.21377 | 3.65972 | 34904 ft | 408 kts | 232° |
| 2026-05-05 18:42 | 45.18027 | 3.59473 | 34907 ft | 408 kts | 233° |
| 2026-05-05 18:43 | 45.14789 | 3.52862 | 34910 ft | 408 kts | 234° |
| 2026-05-05 18:43 | 45.11569 | 3.46294 | 34912 ft | 408 kts | 233° |
| 2026-05-05 18:44 | 45.08295 | 3.39738 | 34916 ft | 408 kts | 233° |
| 2026-05-05 18:44 | 45.05025 | 3.33174 | 34922 ft | 407 kts | 233° |
| 2026-05-05 18:45 | 45.01760 | 3.26615 | 34942 ft | 407 kts | 233° |
| 2026-05-05 18:45 | 44.98494 | 3.20083 | 34921 ft | 407 kts | 233° |
| 2026-05-05 18:46 | 44.95243 | 3.13596 | 34892 ft | 407 kts | 233° |
| 2026-05-05 18:46 | 44.91963 | 3.07065 | 34862 ft | 408 kts | 233° |
| 2026-05-05 18:47 | 44.88685 | 3.00552 | 34907 ft | 406 kts | 233° |
| 2026-05-05 18:47 | 44.85408 | 2.94057 | 34893 ft | 407 kts | 233° |
| 2026-05-05 18:48 | 44.82277 | 2.87397 | 34873 ft | 408 kts | 236° |
| 2026-05-05 18:48 | 44.79204 | 2.80672 | 34876 ft | 408 kts | 236° |
| 2026-05-05 18:49 | 44.76113 | 2.73975 | 34878 ft | 408 kts | 236° |
| 2026-05-05 18:49 | 44.73010 | 2.67280 | 34867 ft | 409 kts | 236° |
| 2026-05-05 18:50 | 44.69900 | 2.60571 | 34885 ft | 409 kts | 236° |
| 2026-05-05 18:50 | 44.66786 | 2.53869 | 34905 ft | 409 kts | 236° |
| 2026-05-05 18:51 | 44.63688 | 2.47220 | 34913 ft | 409 kts | 236° |
| 2026-05-05 18:51 | 44.60567 | 2.40535 | 34918 ft | 409 kts | 236° |
| 2026-05-05 18:52 | 44.57442 | 2.33860 | 34928 ft | 409 kts | 236° |
| 2026-05-05 18:52 | 44.54311 | 2.27188 | 34929 ft | 409 kts | 236° |
| 2026-05-05 18:53 | 44.51177 | 2.20521 | 34928 ft | 409 kts | 236° |
| 2026-05-05 18:53 | 44.48039 | 2.13861 | 34940 ft | 409 kts | 236° |
| 2026-05-05 18:54 | 44.44919 | 2.07259 | 34938 ft | 409 kts | 236° |
| 2026-05-05 18:54 | 44.41773 | 2.00614 | 34933 ft | 409 kts | 236° |
| 2026-05-05 18:55 | 44.38623 | 1.93975 | 34911 ft | 410 kts | 236° |
| 2026-05-05 18:55 | 44.35461 | 1.87327 | 34900 ft | 410 kts | 236° |
| 2026-05-05 18:56 | 44.32293 | 1.80681 | 34910 ft | 410 kts | 236° |
| 2026-05-05 18:56 | 44.29155 | 1.74083 | 34908 ft | 409 kts | 236° |
| 2026-05-05 18:57 | 44.26086 | 1.67397 | 34906 ft | 409 kts | 236° |
| 2026-05-05 18:57 | 44.23010 | 1.60689 | 34911 ft | 410 kts | 236° |
| 2026-05-05 18:58 | 44.19914 | 1.53975 | 34915 ft | 412 kts | 236° |
| 2026-05-05 18:58 | 44.16833 | 1.47303 | 34953 ft | 412 kts | 236° |
| 2026-05-05 18:59 | 44.13729 | 1.40596 | 34974 ft | 412 kts | 236° |
| 2026-05-05 18:59 | 44.10615 | 1.33885 | 34932 ft | 413 kts | 236° |
| 2026-05-05 19:00 | 44.07484 | 1.27151 | 34904 ft | 414 kts | 236° |
| 2026-05-05 19:00 | 44.04351 | 1.20423 | 34908 ft | 415 kts | 236° |
| 2026-05-05 19:01 | 44.01734 | 1.14825 | 34907 ft | 416 kts | 236° |
| 2026-05-05 19:01 | 43.98061 | 1.06980 | 34908 ft | 416 kts | 236° |
| 2026-05-05 19:02 | 43.95435 | 1.01381 | 34948 ft | 416 kts | 236° |
| 2026-05-05 19:02 | 43.92276 | 0.94660 | 34999 ft | 414 kts | 236° |
| 2026-05-05 19:03 | 43.89119 | 0.88011 | 34995 ft | 411 kts | 234° |
| 2026-05-05 19:03 | 43.85446 | 0.81980 | 34982 ft | 408 kts | 228° |
| 2026-05-05 19:04 | 43.81632 | 0.76198 | 34939 ft | 405 kts | 228° |
| 2026-05-05 19:04 | 43.77869 | 0.70408 | 34904 ft | 404 kts | 229° |
| 2026-05-05 19:05 | 43.74108 | 0.64576 | 34942 ft | 409 kts | 229° |
| 2026-05-05 19:05 | 43.70277 | 0.58691 | 34955 ft | 413 kts | 228° |
| 2026-05-05 19:06 | 43.66426 | 0.52790 | 34963 ft | 413 kts | 228° |
| 2026-05-05 19:06 | 43.62604 | 0.46935 | 34968 ft | 413 kts | 228° |
| 2026-05-05 19:07 | 43.58740 | 0.41028 | 34998 ft | 415 kts | 228° |
| 2026-05-05 19:07 | 43.54860 | 0.35113 | 35017 ft | 416 kts | 228° |
| 2026-05-05 19:08 | 43.51163 | 0.29002 | 35020 ft | 414 kts | 237° |
| 2026-05-05 19:08 | 43.48424 | 0.22020 | 35002 ft | 413 kts | 243° |
| 2026-05-05 19:09 | 43.45875 | 0.14962 | 34959 ft | 411 kts | 242° |
| 2026-05-05 19:09 | 43.43243 | 0.08025 | 34940 ft | 407 kts | 241° |
| 2026-05-05 19:10 | 43.40619 | 0.01201 | 34969 ft | 408 kts | 242° |
| 2026-05-05 19:10 | 43.37980 | -0.05762 | 34984 ft | 413 kts | 243° |
| 2026-05-05 19:11 | 43.35300 | -0.12807 | 34988 ft | 418 kts | 243° |
| 2026-05-05 19:11 | 43.32584 | -0.19896 | 34986 ft | 419 kts | 243° |
| 2026-05-05 19:12 | 43.29868 | -0.26978 | 34985 ft | 419 kts | 243° |
| 2026-05-05 19:12 | 43.27150 | -0.34055 | 34977 ft | 418 kts | 243° |
| 2026-05-05 19:13 | 43.25792 | -0.37580 | 34755 ft | 416 kts | 243° |
| 2026-05-05 19:13 | 43.24451 | -0.41058 | 34324 ft | 415 kts | 243° |
| 2026-05-05 19:13 | 43.23103 | -0.44553 | 33878 ft | 415 kts | 243° |
| 2026-05-05 19:13 | 43.21753 | -0.48046 | 33431 ft | 414 kts | 243° |
| 2026-05-05 19:14 | 43.20401 | -0.51539 | 32984 ft | 414 kts | 243° |
| 2026-05-05 19:14 | 43.19049 | -0.55029 | 32534 ft | 412 kts | 243° |
| 2026-05-05 19:14 | 43.17710 | -0.58477 | 32086 ft | 408 kts | 243° |
| 2026-05-05 19:14 | 43.16383 | -0.61895 | 31639 ft | 405 kts | 243° |
| 2026-05-05 19:15 | 43.15160 | -0.65349 | 31183 ft | 401 kts | 250° |
| 2026-05-05 19:15 | 43.14455 | -0.69009 | 30738 ft | 397 kts | 260° |
| 2026-05-05 19:15 | 43.14066 | -0.72751 | 30298 ft | 398 kts | 263° |
| 2026-05-05 19:15 | 43.13760 | -0.76520 | 29852 ft | 399 kts | 263° |
| 2026-05-05 19:16 | 43.13460 | -0.80254 | 29377 ft | 400 kts | 263° |
| 2026-05-05 19:16 | 43.13118 | -0.84027 | 28879 ft | 399 kts | 262° |
| 2026-05-05 19:16 | 43.12737 | -0.87783 | 28381 ft | 398 kts | 262° |
| 2026-05-05 19:16 | 43.12340 | -0.91531 | 27881 ft | 396 kts | 262° |
| 2026-05-05 19:17 | 43.11951 | -0.95260 | 27382 ft | 394 kts | 262° |
| 2026-05-05 19:17 | 43.11578 | -0.98960 | 26885 ft | 392 kts | 263° |
| 2026-05-05 19:17 | 43.11213 | -1.02656 | 26386 ft | 390 kts | 263° |
| 2026-05-05 19:17 | 43.10849 | -1.06320 | 25888 ft | 388 kts | 263° |
| 2026-05-05 19:18 | 43.10482 | -1.09970 | 25390 ft | 386 kts | 263° |
| 2026-05-05 19:18 | 43.10112 | -1.13598 | 24892 ft | 384 kts | 263° |
| 2026-05-05 19:18 | 43.09742 | -1.17212 | 24394 ft | 383 kts | 263° |
| 2026-05-05 19:18 | 43.09374 | -1.20807 | 23896 ft | 381 kts | 263° |
| 2026-05-05 19:19 | 43.09008 | -1.24389 | 23396 ft | 378 kts | 263° |
| 2026-05-05 19:19 | 43.08648 | -1.27902 | 22903 ft | 375 kts | 263° |
| 2026-05-05 19:19 | 43.08279 | -1.31469 | 22398 ft | 372 kts | 263° |
| 2026-05-05 19:19 | 43.07922 | -1.34917 | 21906 ft | 369 kts | 263° |
| 2026-05-05 19:20 | 43.07563 | -1.38387 | 21407 ft | 366 kts | 263° |
| 2026-05-05 19:20 | 43.07205 | -1.41825 | 20908 ft | 364 kts | 263° |
| 2026-05-05 19:20 | 43.06849 | -1.45230 | 20409 ft | 361 kts | 263° |
| 2026-05-05 19:20 | 43.06494 | -1.48624 | 19865 ft | 359 kts | 263° |
| 2026-05-05 19:21 | 43.06139 | -1.52000 | 19316 ft | 357 kts | 263° |
| 2026-05-05 19:21 | 43.05787 | -1.55351 | 18767 ft | 355 kts | 263° |
| 2026-05-05 19:21 | 43.05435 | -1.58686 | 18218 ft | 353 kts | 263° |
| 2026-05-05 19:21 | 43.05083 | -1.62003 | 17704 ft | 351 kts | 262° |
| 2026-05-05 19:22 | 43.04734 | -1.65284 | 17252 ft | 346 kts | 262° |
| 2026-05-05 19:22 | 43.04388 | -1.68529 | 16802 ft | 342 kts | 262° |
| 2026-05-05 19:22 | 43.04047 | -1.71732 | 16353 ft | 339 kts | 262° |
| 2026-05-05 19:22 | 43.03707 | -1.74908 | 15903 ft | 336 kts | 262° |
| 2026-05-05 19:23 | 43.03369 | -1.78053 | 15454 ft | 333 kts | 262° |
| 2026-05-05 19:23 | 43.03033 | -1.81173 | 15005 ft | 331 kts | 262° |
| 2026-05-05 19:23 | 43.02702 | -1.84239 | 14561 ft | 329 kts | 262° |
| 2026-05-05 19:23 | 43.02367 | -1.87331 | 14112 ft | 328 kts | 262° |
| 2026-05-05 19:24 | 43.02034 | -1.90399 | 13662 ft | 326 kts | 262° |
| 2026-05-05 19:24 | 43.01702 | -1.93451 | 13212 ft | 324 kts | 262° |
| 2026-05-05 19:24 | 43.01371 | -1.96484 | 12763 ft | 322 kts | 262° |
| 2026-05-05 19:24 | 43.01041 | -1.99510 | 12313 ft | 322 kts | 262° |
| 2026-05-05 19:25 | 43.00711 | -2.02536 | 11863 ft | 321 kts | 262° |
| 2026-05-05 19:25 | 43.00381 | -2.05553 | 11413 ft | 321 kts | 262° |
| 2026-05-05 19:25 | 43.00051 | -2.08566 | 10963 ft | 320 kts | 262° |
| 2026-05-05 19:25 | 42.99719 | -2.11572 | 10512 ft | 319 kts | 262° |
| 2026-05-05 19:26 | 42.99588 | -2.14540 | 10062 ft | 314 kts | 276° |
| 2026-05-05 19:26 | 43.00117 | -2.17377 | 9710 ft | 303 kts | 295° |
| 2026-05-05 19:26 | 43.01155 | -2.19822 | 9466 ft | 292 kts | 303° |
| 2026-05-05 19:26 | 43.02285 | -2.22073 | 9218 ft | 282 kts | 304° |
| 2026-05-05 19:27 | 43.03408 | -2.24253 | 8971 ft | 279 kts | 304° |
| 2026-05-05 19:27 | 43.04493 | -2.26434 | 8721 ft | 276 kts | 303° |
| 2026-05-05 19:27 | 43.05529 | -2.28627 | 8469 ft | 272 kts | 302° |
| 2026-05-05 19:27 | 43.06531 | -2.30808 | 8218 ft | 268 kts | 302° |
| 2026-05-05 19:28 | 43.07504 | -2.32921 | 7971 ft | 264 kts | 302° |
| 2026-05-05 19:28 | 43.08485 | -2.35021 | 7763 ft | 260 kts | 302° |
| 2026-05-05 19:28 | 43.09463 | -2.37101 | 7564 ft | 260 kts | 302° |
| 2026-05-05 19:28 | 43.10437 | -2.39180 | 7364 ft | 259 kts | 302° |
| 2026-05-05 19:29 | 43.11401 | -2.41250 | 7163 ft | 257 kts | 302° |
| 2026-05-05 19:29 | 43.12360 | -2.43311 | 6963 ft | 256 kts | 302° |
| 2026-05-05 19:29 | 43.13259 | -2.45409 | 6762 ft | 253 kts | 298° |
| 2026-05-05 19:29 | 43.14079 | -2.47511 | 6560 ft | 247 kts | 297° |
| 2026-05-05 19:30 | 43.14860 | -2.49582 | 6359 ft | 242 kts | 297° |
| 2026-05-05 19:30 | 43.15604 | -2.51625 | 6157 ft | 236 kts | 296° |
| 2026-05-05 19:30 | 43.16330 | -2.53638 | 5958 ft | 235 kts | 296° |
| 2026-05-05 19:30 | 43.17049 | -2.55596 | 5758 ft | 230 kts | 297° |
| 2026-05-05 19:31 | 43.17773 | -2.57532 | 5556 ft | 226 kts | 297° |
| 2026-05-05 19:31 | 43.18480 | -2.59436 | 5363 ft | 222 kts | 297° |
| 2026-05-05 19:31 | 43.19176 | -2.61330 | 5159 ft | 222 kts | 296° |
| 2026-05-05 19:31 | 43.19866 | -2.63211 | 4896 ft | 220 kts | 297° |
| 2026-05-05 19:32 | 43.20554 | -2.65076 | 4600 ft | 217 kts | 297° |
| 2026-05-05 19:32 | 43.21230 | -2.66906 | 4292 ft | 213 kts | 297° |
| 2026-05-05 19:32 | 43.21892 | -2.68703 | 3981 ft | 209 kts | 296° |
| 2026-05-05 19:32 | 43.22543 | -2.70473 | 3670 ft | 206 kts | 297° |
| 2026-05-05 19:33 | 43.23176 | -2.72189 | 3367 ft | 202 kts | 296° |
| 2026-05-05 19:33 | 43.23805 | -2.73898 | 3065 ft | 199 kts | 296° |
| 2026-05-05 19:33 | 43.24423 | -2.75575 | 2768 ft | 194 kts | 296° |
| 2026-05-05 19:33 | 43.25007 | -2.77166 | 2541 ft | 177 kts | 297° |
| 2026-05-05 19:34 | 43.25535 | -2.78596 | 2247 ft | 158 kts | 297° |
| 2026-05-05 19:34 | 43.26002 | -2.79865 | 2005 ft | 141 kts | 297° |
| 2026-05-05 19:34 | 43.26422 | -2.81008 | 1802 ft | 130 kts | 297° |
| 2026-05-05 19:35 | 43.27253 | -2.83263 | 1408 ft | 135 kts | 297° |
| 2026-05-05 19:35 | 43.27675 | -2.84413 | 1204 ft | 135 kts | 297° |
| 2026-05-05 19:35 | 43.28097 | -2.85562 | 1001 ft | 135 kts | 297° |
| 2026-05-05 19:35 | 43.28519 | -2.86710 | 797 ft | 135 kts | 297° |
| 2026-05-05 19:36 | 43.28940 | -2.87856 | 593 ft | 134 kts | 297° |
| 2026-05-05 19:36 | 43.29360 | -2.88998 | 389 ft | 134 kts | 297° |
| 2026-05-05 19:36 | 43.29778 | -2.90134 | 196 ft | 133 kts | 297° |
| 2026-05-05 19:36 | 43.30161 | -2.91175 | 152 ft | 94 kts | 296° |
| 2026-05-05 19:37 | 43.30320 | -2.91606 | 152 ft | 23 kts | 297° |
| 2026-05-05 19:37 | 43.30382 | -2.91769 | 152 ft | 16 kts | 300° |
| 2026-05-05 19:37 | 43.30453 | -2.91894 | 152 ft | 18 kts | 316° |
| 2026-05-05 19:37 | 43.30538 | -2.91986 | 152 ft | 13 kts | 328° |
| 2026-05-05 19:38 | 43.30599 | -2.92026 | 152 ft | 7 kts | 358° |
| 2026-05-05 19:38 | 43.30633 | -2.91981 | 152 ft | 8 kts | 82° |
| 2026-05-05 19:38 | 43.30610 | -2.91896 | 152 ft | 11 kts | 115° |
| 2026-05-05 19:38 | 43.30573 | -2.91791 | 152 ft | 14 kts | 117° |
| 2026-05-05 19:39 | 43.30526 | -2.91665 | 152 ft | 16 kts | 117° |
| 2026-05-05 19:39 | 43.30471 | -2.91516 | 152 ft | 19 kts | 117° |
| 2026-05-05 19:39 | 43.30413 | -2.91358 | 152 ft | 16 kts | 116° |
| 2026-05-05 19:39 | 43.30366 | -2.91230 | 152 ft | 14 kts | 116° |
| 2026-05-05 19:40 | 43.30328 | -2.91126 | 152 ft | 9 kts | 116° |
| 2026-05-05 19:40 | 43.30318 | -2.91040 | 152 ft | 8 kts | 57° |
| 2026-05-05 19:40 | 43.30365 | -2.90999 | 152 ft | 7 kts | 28° |
| 2026-05-05 19:40 | 43.30404 | -2.90954 | 152 ft | 7 kts | 67° |
| 2026-05-05 19:41 | 43.30410 | -2.90894 | 152 ft | 6 kts | 85° |
| 2026-05-05 19:41 | 43.30413 | -2.90836 | 152 ft | 6 kts | 88° |
| 2026-05-05 19:41 | 43.30404 | -2.90775 | 152 ft | 7 kts | 115° |
| 2026-05-05 19:41 | 43.30382 | -2.90715 | 152 ft | 7 kts | 117° |
| 2026-05-05 19:42 | 43.30361 | -2.90656 | 152 ft | 5 kts | 117° |
| 2026-05-05 19:42 | 43.30363 | -2.90617 | 152 ft | 4 kts | 44° |
| 2026-05-05 19:42 | 43.30388 | -2.90595 | 152 ft | 4 kts | 27° |
| 2026-05-05 19:42 | 43.30407 | -2.90581 | 152 ft | 1 kts | 28° |
| 2026-05-05 19:43 | 43.30410 | -2.90579 | 152 ft | 0 kts | 26° |